sensor_id;sensor_type;location;lat;lon;timestamp;P1;durP1;ratioP1;P2;durP2;ratioP2
6215;SDS011;3141;49.234;9.326;2022-10-16T00:00:41;8.50;;;3.70;;
6215;SDS011;3141;49.234;9.326;2022-10-16T00:01:25;10.43;;;5.10;;
6215;SDS011;3141;49.234;9.326;2022-10-16T00:02:09;18.80;;;6.93;;
6215;SDS011;3141;49.234;9.326;2022-10-16T00:02:51;13.77;;;5.67;;
6215;SDS011;3141;49.234;9.326;2022-10-16T00:03:34;21.80;;;7.20;;
6215;SDS011;3141;49.234;9.326;2022-10-16T00:04:17;9.02;;;3.80;;
6215;SDS011;3141;49.234;9.326;2022-10-16T00:04:59;2.27;;;2.07;;
6215;SDS011;3141;49.234;9.326;2022-10-16T00:05:42;1.50;;;1.40;;
6215;SDS011;3141;49.234;9.326;2022-10-16T00:06:26;1.10;;;1.00;;
6215;SDS011;3141;49.234;9.326;2022-10-16T00:07:09;1.60;;;0.90;;
6215;SDS011;3141;49.234;9.326;2022-10-16T00:07:52;0.40;;;0.40;;
6215;SDS011;3141;49.234;9.326;2022-10-16T00:08:34;1.20;;;1.00;;
6215;SDS011;3141;49.234;9.326;2022-10-16T00:09:20;0.40;;;0.40;;
6215;SDS011;3141;49.234;9.326;2022-10-16T00:10:02;0.43;;;0.43;;
6215;SDS011;3141;49.234;9.326;2022-10-16T00:10:44;0.40;;;0.40;;
6215;SDS011;3141;49.234;9.326;2022-10-16T00:11:28;0.40;;;0.40;;
6215;SDS011;3141;49.234;9.326;2022-10-16T00:12:20;0.30;;;0.30;;
6215;SDS011;3141;49.234;9.326;2022-10-16T00:13:03;0.70;;;0.70;;
6215;SDS011;3141;49.234;9.326;2022-10-16T00:13:46;0.38;;;0.38;;
6215;SDS011;3141;49.234;9.326;2022-10-16T00:14:29;0.65;;;0.65;;
6215;SDS011;3141;49.234;9.326;2022-10-16T00:15:12;0.47;;;0.47;;
6215;SDS011;3141;49.234;9.326;2022-10-16T00:15:55;0.30;;;0.30;;
6215;SDS011;3141;49.234;9.326;2022-10-16T00:16:38;0.47;;;0.47;;
6215;SDS011;3141;49.234;9.326;2022-10-16T00:17:21;0.40;;;0.40;;
6215;SDS011;3141;49.234;9.326;2022-10-16T00:18:04;6.43;;;1.37;;
6215;SDS011;3141;49.234;9.326;2022-10-16T00:18:47;0.43;;;0.43;;
6215;SDS011;3141;49.234;9.326;2022-10-16T00:19:29;0.53;;;0.53;;
6215;SDS011;3141;49.234;9.326;2022-10-16T00:20:12;0.90;;;0.40;;
6215;SDS011;3141;49.234;9.326;2022-10-16T00:20:54;0.40;;;0.40;;
6215;SDS011;3141;49.234;9.326;2022-10-16T00:21:37;0.50;;;0.50;;
6215;SDS011;3141;49.234;9.326;2022-10-16T00:22:19;0.60;;;0.60;;
6215;SDS011;3141;49.234;9.326;2022-10-16T00:23:01;0.40;;;0.40;;
6215;SDS011;3141;49.234;9.326;2022-10-16T00:23:45;0.43;;;0.43;;
6215;SDS011;3141;49.234;9.326;2022-10-16T00:24:28;0.30;;;0.30;;
6215;SDS011;3141;49.234;9.326;2022-10-16T00:25:10;1.90;;;0.60;;
6215;SDS011;3141;49.234;9.326;2022-10-16T00:25:59;0.50;;;0.50;;
6215;SDS011;3141;49.234;9.326;2022-10-16T00:26:43;0.70;;;0.70;;
6215;SDS011;3141;49.234;9.326;2022-10-16T00:27:25;0.53;;;0.53;;
6215;SDS011;3141;49.234;9.326;2022-10-16T00:28:08;0.40;;;0.40;;
6215;SDS011;3141;49.234;9.326;2022-10-16T00:28:50;0.97;;;0.60;;
6215;SDS011;3141;49.234;9.326;2022-10-16T00:29:33;0.73;;;0.73;;
6215;SDS011;3141;49.234;9.326;2022-10-16T00:30:15;1.97;;;1.40;;
6215;SDS011;3141;49.234;9.326;2022-10-16T00:30:57;5.60;;;2.37;;
6215;SDS011;3141;49.234;9.326;2022-10-16T00:31:40;1.23;;;1.07;;
6215;SDS011;3141;49.234;9.326;2022-10-16T00:32:22;5.20;;;2.33;;
6215;SDS011;3141;49.234;9.326;2022-10-16T00:33:05;6.63;;;2.73;;
6215;SDS011;3141;49.234;9.326;2022-10-16T00:33:47;4.47;;;3.03;;
6215;SDS011;3141;49.234;9.326;2022-10-16T00:34:29;3.47;;;1.53;;
6215;SDS011;3141;49.234;9.326;2022-10-16T00:35:12;2.20;;;1.57;;
6215;SDS011;3141;49.234;9.326;2022-10-16T00:35:57;3.23;;;1.70;;
6215;SDS011;3141;49.234;9.326;2022-10-16T00:36:40;1.13;;;1.02;;
6215;SDS011;3141;49.234;9.326;2022-10-16T00:37:22;1.20;;;0.77;;
6215;SDS011;3141;49.234;9.326;2022-10-16T00:38:05;7.77;;;2.90;;
6215;SDS011;3141;49.234;9.326;2022-10-16T00:38:47;9.17;;;3.33;;
6215;SDS011;3141;49.234;9.326;2022-10-16T00:39:34;7.28;;;2.78;;
6215;SDS011;3141;49.234;9.326;2022-10-16T00:40:17;4.17;;;2.63;;
6215;SDS011;3141;49.234;9.326;2022-10-16T00:40:59;10.30;;;5.27;;
6215;SDS011;3141;49.234;9.326;2022-10-16T00:41:42;14.30;;;5.93;;
6215;SDS011;3141;49.234;9.326;2022-10-16T00:42:24;12.73;;;4.50;;
6215;SDS011;3141;49.234;9.326;2022-10-16T00:45:24;7.82;;;4.13;;
6215;SDS011;3141;49.234;9.326;2022-10-16T00:46:15;7.13;;;3.80;;
6215;SDS011;3141;49.234;9.326;2022-10-16T00:47:00;6.25;;;3.80;;
6215;SDS011;3141;49.234;9.326;2022-10-16T00:47:43;4.67;;;2.83;;
6215;SDS011;3141;49.234;9.326;2022-10-16T00:48:30;3.22;;;2.33;;
6215;SDS011;3141;49.234;9.326;2022-10-16T00:49:16;5.00;;;1.90;;
6215;SDS011;3141;49.234;9.326;2022-10-16T00:50:05;4.63;;;2.35;;
6215;SDS011;3141;49.234;9.326;2022-10-16T00:50:51;3.60;;;1.83;;
6215;SDS011;3141;49.234;9.326;2022-10-16T00:51:35;3.28;;;1.92;;
6215;SDS011;3141;49.234;9.326;2022-10-16T00:52:19;3.13;;;1.75;;
6215;SDS011;3141;49.234;9.326;2022-10-16T00:53:02;1.67;;;1.50;;
6215;SDS011;3141;49.234;9.326;2022-10-16T00:53:45;2.85;;;1.33;;
6215;SDS011;3141;49.234;9.326;2022-10-16T00:54:29;0.87;;;0.73;;
6215;SDS011;3141;49.234;9.326;2022-10-16T00:55:13;3.38;;;1.02;;
6215;SDS011;3141;49.234;9.326;2022-10-16T00:55:55;2.90;;;1.33;;
6215;SDS011;3141;49.234;9.326;2022-10-16T00:56:38;1.27;;;1.17;;
6215;SDS011;3141;49.234;9.326;2022-10-16T00:57:21;2.22;;;0.93;;
6215;SDS011;3141;49.234;9.326;2022-10-16T00:58:04;0.95;;;0.47;;
6215;SDS011;3141;49.234;9.326;2022-10-16T00:58:47;1.70;;;0.80;;
6215;SDS011;3141;49.234;9.326;2022-10-16T00:59:32;0.43;;;0.43;;
6215;SDS011;3141;49.234;9.326;2022-10-16T01:00:19;0.85;;;0.70;;
6215;SDS011;3141;49.234;9.326;2022-10-16T01:01:03;0.68;;;0.55;;
6215;SDS011;3141;49.234;9.326;2022-10-16T01:01:46;2.97;;;0.37;;
6215;SDS011;3141;49.234;9.326;2022-10-16T01:02:28;0.43;;;0.43;;
6215;SDS011;3141;49.234;9.326;2022-10-16T01:04:17;0.40;;;0.40;;
6215;SDS011;3141;49.234;9.326;2022-10-16T01:04:59;0.40;;;0.40;;
6215;SDS011;3141;49.234;9.326;2022-10-16T01:05:45;0.33;;;0.33;;
6215;SDS011;3141;49.234;9.326;2022-10-16T01:07:30;0.68;;;0.68;;
6215;SDS011;3141;49.234;9.326;2022-10-16T01:08:32;0.32;;;0.32;;
6215;SDS011;3141;49.234;9.326;2022-10-16T01:09:22;0.70;;;0.70;;
6215;SDS011;3141;49.234;9.326;2022-10-16T01:10:10;0.50;;;0.50;;
6215;SDS011;3141;49.234;9.326;2022-10-16T01:11:10;5.55;;;0.38;;
6215;SDS011;3141;49.234;9.326;2022-10-16T01:12:15;0.30;;;0.30;;
6215;SDS011;3141;49.234;9.326;2022-10-16T01:13:09;0.30;;;0.30;;
6215;SDS011;3141;49.234;9.326;2022-10-16T01:13:55;0.38;;;0.38;;
6215;SDS011;3141;49.234;9.326;2022-10-16T01:14:53;0.50;;;0.50;;
6215;SDS011;3141;49.234;9.326;2022-10-16T01:15:47;0.65;;;0.65;;
6215;SDS011;3141;49.234;9.326;2022-10-16T01:16:37;1.38;;;0.60;;
6215;SDS011;3141;49.234;9.326;2022-10-16T01:17:28;1.45;;;0.77;;
6215;SDS011;3141;49.234;9.326;2022-10-16T01:18:18;0.50;;;0.50;;
6215;SDS011;3141;49.234;9.326;2022-10-16T01:19:36;0.85;;;0.85;;
6215;SDS011;3141;49.234;9.326;2022-10-16T01:20:53;1.13;;;1.00;;
6215;SDS011;3141;49.234;9.326;2022-10-16T01:21:38;2.83;;;0.77;;
6215;SDS011;3141;49.234;9.326;2022-10-16T01:22:25;0.77;;;0.75;;
6215;SDS011;3141;49.234;9.326;2022-10-16T01:25:18;0.60;;;0.60;;
6215;SDS011;3141;49.234;9.326;2022-10-16T01:27:21;0.47;;;0.43;;
6215;SDS011;3141;49.234;9.326;2022-10-16T01:28:14;0.30;;;0.30;;
6215;SDS011;3141;49.234;9.326;2022-10-16T01:29:06;0.47;;;0.47;;
6215;SDS011;3141;49.234;9.326;2022-10-16T01:29:54;2.63;;;0.45;;
6215;SDS011;3141;49.234;9.326;2022-10-16T01:30:43;1.75;;;0.77;;
6215;SDS011;3141;49.234;9.326;2022-10-16T01:31:27;0.50;;;0.50;;
6215;SDS011;3141;49.234;9.326;2022-10-16T01:32:33;0.30;;;0.30;;
6215;SDS011;3141;49.234;9.326;2022-10-16T01:33:19;0.43;;;0.43;;
6215;SDS011;3141;49.234;9.326;2022-10-16T01:34:06;1.02;;;0.60;;
6215;SDS011;3141;49.234;9.326;2022-10-16T01:35:01;0.45;;;0.45;;
6215;SDS011;3141;49.234;9.326;2022-10-16T01:35:54;0.60;;;0.60;;
6215;SDS011;3141;49.234;9.326;2022-10-16T01:36:48;0.40;;;0.32;;
6215;SDS011;3141;49.234;9.326;2022-10-16T01:37:35;0.70;;;0.70;;
6215;SDS011;3141;49.234;9.326;2022-10-16T01:39:08;0.40;;;0.40;;
6215;SDS011;3141;49.234;9.326;2022-10-16T01:39:52;0.52;;;0.52;;
6215;SDS011;3141;49.234;9.326;2022-10-16T01:40:41;1.88;;;0.50;;
6215;SDS011;3141;49.234;9.326;2022-10-16T01:41:34;0.30;;;0.30;;
6215;SDS011;3141;49.234;9.326;2022-10-16T01:42:21;0.57;;;0.57;;
6215;SDS011;3141;49.234;9.326;2022-10-16T01:43:11;0.45;;;0.45;;
6215;SDS011;3141;49.234;9.326;2022-10-16T01:44:03;0.32;;;0.32;;
6215;SDS011;3141;49.234;9.326;2022-10-16T01:44:49;0.43;;;0.43;;
6215;SDS011;3141;49.234;9.326;2022-10-16T01:45:34;0.55;;;0.50;;
6215;SDS011;3141;49.234;9.326;2022-10-16T01:46:18;0.70;;;0.70;;
6215;SDS011;3141;49.234;9.326;2022-10-16T01:47:04;0.40;;;0.40;;
6215;SDS011;3141;49.234;9.326;2022-10-16T01:47:48;0.47;;;0.45;;
6215;SDS011;3141;49.234;9.326;2022-10-16T01:48:32;0.63;;;0.63;;
6215;SDS011;3141;49.234;9.326;2022-10-16T01:49:16;0.50;;;0.50;;
6215;SDS011;3141;49.234;9.326;2022-10-16T01:50:01;1.38;;;0.68;;
6215;SDS011;3141;49.234;9.326;2022-10-16T01:50:55;0.82;;;0.40;;
6215;SDS011;3141;49.234;9.326;2022-10-16T01:51:41;1.02;;;0.52;;
6215;SDS011;3141;49.234;9.326;2022-10-16T01:52:27;0.30;;;0.30;;
6215;SDS011;3141;49.234;9.326;2022-10-16T01:53:12;0.52;;;0.52;;
6215;SDS011;3141;49.234;9.326;2022-10-16T01:53:56;0.30;;;0.30;;
6215;SDS011;3141;49.234;9.326;2022-10-16T01:54:43;0.28;;;0.28;;
6215;SDS011;3141;49.234;9.326;2022-10-16T01:55:30;0.57;;;0.57;;
6215;SDS011;3141;49.234;9.326;2022-10-16T01:56:17;0.47;;;0.47;;
6215;SDS011;3141;49.234;9.326;2022-10-16T01:57:00;0.85;;;0.75;;
6215;SDS011;3141;49.234;9.326;2022-10-16T01:57:45;0.50;;;0.50;;
6215;SDS011;3141;49.234;9.326;2022-10-16T01:58:31;1.27;;;0.50;;
6215;SDS011;3141;49.234;9.326;2022-10-16T01:59:18;0.40;;;0.40;;
6215;SDS011;3141;49.234;9.326;2022-10-16T02:00:05;0.50;;;0.50;;
6215;SDS011;3141;49.234;9.326;2022-10-16T02:00:51;2.47;;;0.70;;
6215;SDS011;3141;49.234;9.326;2022-10-16T02:01:34;0.50;;;0.50;;
6215;SDS011;3141;49.234;9.326;2022-10-16T02:02:20;0.60;;;0.60;;
6215;SDS011;3141;49.234;9.326;2022-10-16T02:03:04;0.40;;;0.40;;
6215;SDS011;3141;49.234;9.326;2022-10-16T02:03:49;0.30;;;0.30;;
6215;SDS011;3141;49.234;9.326;2022-10-16T02:04:36;0.63;;;0.45;;
6215;SDS011;3141;49.234;9.326;2022-10-16T02:06:06;1.05;;;1.05;;
6215;SDS011;3141;49.234;9.326;2022-10-16T02:06:49;1.50;;;0.63;;
6215;SDS011;3141;49.234;9.326;2022-10-16T02:07:32;0.77;;;0.77;;
6215;SDS011;3141;49.234;9.326;2022-10-16T02:08:14;0.30;;;0.30;;
6215;SDS011;3141;49.234;9.326;2022-10-16T02:08:57;0.50;;;0.50;;
6215;SDS011;3141;49.234;9.326;2022-10-16T02:09:39;1.40;;;0.40;;
6215;SDS011;3141;49.234;9.326;2022-10-16T02:10:22;2.10;;;0.63;;
6215;SDS011;3141;49.234;9.326;2022-10-16T02:11:07;0.32;;;0.32;;
6215;SDS011;3141;49.234;9.326;2022-10-16T02:11:50;2.90;;;0.40;;
6215;SDS011;3141;49.234;9.326;2022-10-16T02:12:36;2.88;;;0.50;;
6215;SDS011;3141;49.234;9.326;2022-10-16T02:13:26;0.40;;;0.40;;
6215;SDS011;3141;49.234;9.326;2022-10-16T02:14:13;0.30;;;0.30;;
6215;SDS011;3141;49.234;9.326;2022-10-16T02:14:55;0.50;;;0.50;;
6215;SDS011;3141;49.234;9.326;2022-10-16T02:15:38;1.30;;;0.83;;
6215;SDS011;3141;49.234;9.326;2022-10-16T02:16:20;1.13;;;0.83;;
6215;SDS011;3141;49.234;9.326;2022-10-16T02:17:09;0.40;;;0.40;;
6215;SDS011;3141;49.234;9.326;2022-10-16T02:17:56;1.30;;;0.82;;
6215;SDS011;3141;49.234;9.326;2022-10-16T02:18:38;1.97;;;0.97;;
6215;SDS011;3141;49.234;9.326;2022-10-16T02:19:21;0.30;;;0.30;;
6215;SDS011;3141;49.234;9.326;2022-10-16T02:20:04;4.90;;;2.67;;
6215;SDS011;3141;49.234;9.326;2022-10-16T02:21:56;0.70;;;0.70;;
6215;SDS011;3141;49.234;9.326;2022-10-16T02:22:45;0.32;;;0.32;;
6215;SDS011;3141;49.234;9.326;2022-10-16T02:23:37;15.73;;;6.32;;
6215;SDS011;3141;49.234;9.326;2022-10-16T02:24:51;8.13;;;4.53;;
6215;SDS011;3141;49.234;9.326;2022-10-16T02:25:40;11.20;;;4.90;;
6215;SDS011;3141;49.234;9.326;2022-10-16T02:26:27;3.05;;;1.75;;
6215;SDS011;3141;49.234;9.326;2022-10-16T02:28:17;1.65;;;0.50;;
6215;SDS011;3141;49.234;9.326;2022-10-16T02:29:05;1.05;;;0.80;;
6215;SDS011;3141;49.234;9.326;2022-10-16T02:29:55;0.60;;;0.50;;
6215;SDS011;3141;49.234;9.326;2022-10-16T02:30:45;0.77;;;0.73;;
6215;SDS011;3141;49.234;9.326;2022-10-16T02:31:32;0.93;;;0.68;;
6215;SDS011;3141;49.234;9.326;2022-10-16T02:32:21;0.93;;;0.77;;
6215;SDS011;3141;49.234;9.326;2022-10-16T02:33:07;0.40;;;0.40;;
6215;SDS011;3141;49.234;9.326;2022-10-16T02:33:52;0.60;;;0.60;;
6215;SDS011;3141;49.234;9.326;2022-10-16T02:34:36;1.67;;;0.75;;
6215;SDS011;3141;49.234;9.326;2022-10-16T02:35:21;0.70;;;0.60;;
6215;SDS011;3141;49.234;9.326;2022-10-16T02:36:05;0.40;;;0.40;;
6215;SDS011;3141;49.234;9.326;2022-10-16T02:36:49;0.50;;;0.50;;
6215;SDS011;3141;49.234;9.326;2022-10-16T02:37:32;4.45;;;0.95;;
6215;SDS011;3141;49.234;9.326;2022-10-16T02:38:15;5.27;;;1.37;;
6215;SDS011;3141;49.234;9.326;2022-10-16T02:38:59;0.80;;;0.68;;
6215;SDS011;3141;49.234;9.326;2022-10-16T02:39:43;2.10;;;1.10;;
6215;SDS011;3141;49.234;9.326;2022-10-16T02:40:25;1.07;;;0.97;;
6215;SDS011;3141;49.234;9.326;2022-10-16T02:41:09;1.95;;;0.93;;
6215;SDS011;3141;49.234;9.326;2022-10-16T02:41:51;1.97;;;0.90;;
6215;SDS011;3141;49.234;9.326;2022-10-16T02:42:37;1.80;;;0.80;;
6215;SDS011;3141;49.234;9.326;2022-10-16T02:43:21;0.82;;;0.82;;
6215;SDS011;3141;49.234;9.326;2022-10-16T02:44:03;0.40;;;0.40;;
6215;SDS011;3141;49.234;9.326;2022-10-16T02:44:46;0.80;;;0.80;;
6215;SDS011;3141;49.234;9.326;2022-10-16T02:45:28;0.87;;;0.63;;
6215;SDS011;3141;49.234;9.326;2022-10-16T02:46:11;0.70;;;0.70;;
6215;SDS011;3141;49.234;9.326;2022-10-16T02:46:53;4.97;;;0.90;;
6215;SDS011;3141;49.234;9.326;2022-10-16T02:47:35;1.07;;;1.00;;
6215;SDS011;3141;49.234;9.326;2022-10-16T02:48:18;0.80;;;0.80;;
6215;SDS011;3141;49.234;9.326;2022-10-16T02:49:00;8.17;;;0.73;;
6215;SDS011;3141;49.234;9.326;2022-10-16T02:49:42;0.60;;;0.60;;
6215;SDS011;3141;49.234;9.326;2022-10-16T02:50:25;0.60;;;0.40;;
6215;SDS011;3141;49.234;9.326;2022-10-16T02:51:07;0.50;;;0.50;;
6215;SDS011;3141;49.234;9.326;2022-10-16T02:51:49;0.60;;;0.40;;
6215;SDS011;3141;49.234;9.326;2022-10-16T02:52:32;1.27;;;1.00;;
6215;SDS011;3141;49.234;9.326;2022-10-16T02:53:14;0.57;;;0.57;;
6215;SDS011;3141;49.234;9.326;2022-10-16T02:53:56;0.83;;;0.83;;
6215;SDS011;3141;49.234;9.326;2022-10-16T02:54:39;0.40;;;0.40;;
6215;SDS011;3141;49.234;9.326;2022-10-16T02:55:21;0.40;;;0.40;;
6215;SDS011;3141;49.234;9.326;2022-10-16T02:56:03;0.40;;;0.40;;
6215;SDS011;3141;49.234;9.326;2022-10-16T02:56:46;0.73;;;0.73;;
6215;SDS011;3141;49.234;9.326;2022-10-16T02:57:28;0.40;;;0.40;;
6215;SDS011;3141;49.234;9.326;2022-10-16T02:58:11;0.80;;;0.80;;
6215;SDS011;3141;49.234;9.326;2022-10-16T02:58:53;0.70;;;0.70;;
6215;SDS011;3141;49.234;9.326;2022-10-16T02:59:35;0.43;;;0.43;;
6215;SDS011;3141;49.234;9.326;2022-10-16T03:00:18;1.80;;;0.40;;
6215;SDS011;3141;49.234;9.326;2022-10-16T03:01:00;0.60;;;0.60;;
6215;SDS011;3141;49.234;9.326;2022-10-16T03:01:42;0.73;;;0.73;;
6215;SDS011;3141;49.234;9.326;2022-10-16T03:02:25;0.60;;;0.60;;
6215;SDS011;3141;49.234;9.326;2022-10-16T03:03:07;0.57;;;0.43;;
6215;SDS011;3141;49.234;9.326;2022-10-16T03:03:49;0.60;;;0.50;;
6215;SDS011;3141;49.234;9.326;2022-10-16T03:04:32;0.47;;;0.40;;
6215;SDS011;3141;49.234;9.326;2022-10-16T03:05:14;0.63;;;0.63;;
6215;SDS011;3141;49.234;9.326;2022-10-16T03:05:57;0.50;;;0.50;;
6215;SDS011;3141;49.234;9.326;2022-10-16T03:06:39;0.63;;;0.57;;
6215;SDS011;3141;49.234;9.326;2022-10-16T03:07:21;0.77;;;0.67;;
6215;SDS011;3141;49.234;9.326;2022-10-16T03:08:04;0.50;;;0.50;;
6215;SDS011;3141;49.234;9.326;2022-10-16T03:08:46;0.50;;;0.50;;
6215;SDS011;3141;49.234;9.326;2022-10-16T03:09:28;0.40;;;0.40;;
6215;SDS011;3141;49.234;9.326;2022-10-16T03:10:11;0.40;;;0.40;;
6215;SDS011;3141;49.234;9.326;2022-10-16T03:10:53;0.40;;;0.40;;
6215;SDS011;3141;49.234;9.326;2022-10-16T03:11:35;1.70;;;1.10;;
6215;SDS011;3141;49.234;9.326;2022-10-16T03:12:18;0.77;;;0.77;;
6215;SDS011;3141;49.234;9.326;2022-10-16T03:13:00;0.60;;;0.40;;
6215;SDS011;3141;49.234;9.326;2022-10-16T03:13:42;0.40;;;0.40;;
6215;SDS011;3141;49.234;9.326;2022-10-16T03:14:25;0.40;;;0.40;;
6215;SDS011;3141;49.234;9.326;2022-10-16T03:15:07;0.53;;;0.53;;
6215;SDS011;3141;49.234;9.326;2022-10-16T03:15:50;0.80;;;0.80;;
6215;SDS011;3141;49.234;9.326;2022-10-16T03:16:32;1.60;;;0.77;;
6215;SDS011;3141;49.234;9.326;2022-10-16T03:17:14;0.40;;;0.40;;
6215;SDS011;3141;49.234;9.326;2022-10-16T03:17:58;0.60;;;0.60;;
6215;SDS011;3141;49.234;9.326;2022-10-16T03:18:41;1.07;;;0.50;;
6215;SDS011;3141;49.234;9.326;2022-10-16T03:19:23;0.50;;;0.50;;
6215;SDS011;3141;49.234;9.326;2022-10-16T03:20:06;1.50;;;0.60;;
6215;SDS011;3141;49.234;9.326;2022-10-16T03:20:48;0.50;;;0.50;;
6215;SDS011;3141;49.234;9.326;2022-10-16T03:21:31;0.50;;;0.50;;
6215;SDS011;3141;49.234;9.326;2022-10-16T03:22:13;0.50;;;0.50;;
6215;SDS011;3141;49.234;9.326;2022-10-16T03:22:56;0.30;;;0.30;;
6215;SDS011;3141;49.234;9.326;2022-10-16T03:23:38;1.57;;;0.67;;
6215;SDS011;3141;49.234;9.326;2022-10-16T03:24:20;0.40;;;0.40;;
6215;SDS011;3141;49.234;9.326;2022-10-16T03:25:03;0.50;;;0.50;;
6215;SDS011;3141;49.234;9.326;2022-10-16T03:25:45;0.33;;;0.33;;
6215;SDS011;3141;49.234;9.326;2022-10-16T03:26:28;0.60;;;0.60;;
6215;SDS011;3141;49.234;9.326;2022-10-16T03:27:10;0.50;;;0.50;;
6215;SDS011;3141;49.234;9.326;2022-10-16T03:27:52;0.40;;;0.40;;
6215;SDS011;3141;49.234;9.326;2022-10-16T03:28:35;0.33;;;0.33;;
6215;SDS011;3141;49.234;9.326;2022-10-16T03:29:17;0.47;;;0.47;;
6215;SDS011;3141;49.234;9.326;2022-10-16T03:29:59;0.43;;;0.43;;
6215;SDS011;3141;49.234;9.326;2022-10-16T03:30:42;0.33;;;0.33;;
6215;SDS011;3141;49.234;9.326;2022-10-16T03:31:25;0.63;;;0.30;;
6215;SDS011;3141;49.234;9.326;2022-10-16T03:32:07;0.60;;;0.60;;
6215;SDS011;3141;49.234;9.326;2022-10-16T03:32:50;0.40;;;0.40;;
6215;SDS011;3141;49.234;9.326;2022-10-16T03:33:35;0.35;;;0.35;;
6215;SDS011;3141;49.234;9.326;2022-10-16T03:34:18;0.40;;;0.40;;
6215;SDS011;3141;49.234;9.326;2022-10-16T03:35:00;0.57;;;0.57;;
6215;SDS011;3141;49.234;9.326;2022-10-16T03:35:42;0.57;;;0.57;;
6215;SDS011;3141;49.234;9.326;2022-10-16T03:36:25;0.37;;;0.37;;
6215;SDS011;3141;49.234;9.326;2022-10-16T03:37:07;0.20;;;0.20;;
6215;SDS011;3141;49.234;9.326;2022-10-16T03:37:49;0.30;;;0.30;;
6215;SDS011;3141;49.234;9.326;2022-10-16T03:38:32;0.63;;;0.63;;
6215;SDS011;3141;49.234;9.326;2022-10-16T03:39:15;0.40;;;0.40;;
6215;SDS011;3141;49.234;9.326;2022-10-16T03:39:57;0.47;;;0.40;;
6215;SDS011;3141;49.234;9.326;2022-10-16T03:40:39;0.30;;;0.30;;
6215;SDS011;3141;49.234;9.326;2022-10-16T03:41:22;0.43;;;0.43;;
6215;SDS011;3141;49.234;9.326;2022-10-16T03:42:04;0.40;;;0.40;;
6215;SDS011;3141;49.234;9.326;2022-10-16T03:42:46;0.30;;;0.30;;
6215;SDS011;3141;49.234;9.326;2022-10-16T03:43:29;3.30;;;0.53;;
6215;SDS011;3141;49.234;9.326;2022-10-16T03:44:11;0.50;;;0.50;;
6215;SDS011;3141;49.234;9.326;2022-10-16T03:44:56;0.40;;;0.40;;
6215;SDS011;3141;49.234;9.326;2022-10-16T03:45:39;0.60;;;0.60;;
6215;SDS011;3141;49.234;9.326;2022-10-16T03:46:21;0.33;;;0.33;;
6215;SDS011;3141;49.234;9.326;2022-10-16T03:47:04;7.53;;;0.67;;
6215;SDS011;3141;49.234;9.326;2022-10-16T03:47:46;0.60;;;0.60;;
6215;SDS011;3141;49.234;9.326;2022-10-16T03:48:29;0.30;;;0.30;;
6215;SDS011;3141;49.234;9.326;2022-10-16T03:49:12;0.30;;;0.30;;
6215;SDS011;3141;49.234;9.326;2022-10-16T03:49:54;0.67;;;0.67;;
6215;SDS011;3141;49.234;9.326;2022-10-16T03:50:36;0.93;;;0.50;;
6215;SDS011;3141;49.234;9.326;2022-10-16T03:51:19;0.60;;;0.60;;
6215;SDS011;3141;49.234;9.326;2022-10-16T03:52:01;0.37;;;0.37;;
6215;SDS011;3141;49.234;9.326;2022-10-16T03:52:43;0.60;;;0.60;;
6215;SDS011;3141;49.234;9.326;2022-10-16T03:53:26;0.50;;;0.50;;
6215;SDS011;3141;49.234;9.326;2022-10-16T03:54:09;0.30;;;0.30;;
6215;SDS011;3141;49.234;9.326;2022-10-16T03:54:51;0.40;;;0.40;;
6215;SDS011;3141;49.234;9.326;2022-10-16T03:55:34;0.60;;;0.57;;
6215;SDS011;3141;49.234;9.326;2022-10-16T03:56:16;0.70;;;0.50;;
6215;SDS011;3141;49.234;9.326;2022-10-16T03:56:59;0.40;;;0.40;;
6215;SDS011;3141;49.234;9.326;2022-10-16T03:57:41;0.30;;;0.30;;
6215;SDS011;3141;49.234;9.326;2022-10-16T03:58:23;0.63;;;0.63;;
6215;SDS011;3141;49.234;9.326;2022-10-16T03:59:06;1.10;;;0.70;;
6215;SDS011;3141;49.234;9.326;2022-10-16T03:59:48;0.33;;;0.33;;
6215;SDS011;3141;49.234;9.326;2022-10-16T04:00:30;1.20;;;0.50;;
6215;SDS011;3141;49.234;9.326;2022-10-16T04:01:13;0.70;;;0.43;;
6215;SDS011;3141;49.234;9.326;2022-10-16T04:01:55;0.57;;;0.57;;
6215;SDS011;3141;49.234;9.326;2022-10-16T04:02:37;0.60;;;0.60;;
6215;SDS011;3141;49.234;9.326;2022-10-16T04:03:20;1.90;;;0.57;;
6215;SDS011;3141;49.234;9.326;2022-10-16T04:04:03;0.33;;;0.33;;
6215;SDS011;3141;49.234;9.326;2022-10-16T04:04:45;0.50;;;0.37;;
6215;SDS011;3141;49.234;9.326;2022-10-16T04:05:28;0.40;;;0.40;;
6215;SDS011;3141;49.234;9.326;2022-10-16T04:06:10;0.50;;;0.50;;
6215;SDS011;3141;49.234;9.326;2022-10-16T04:06:52;0.40;;;0.40;;
6215;SDS011;3141;49.234;9.326;2022-10-16T04:07:34;0.67;;;0.67;;
6215;SDS011;3141;49.234;9.326;2022-10-16T04:08:17;0.40;;;0.40;;
6215;SDS011;3141;49.234;9.326;2022-10-16T04:09:00;0.40;;;0.40;;
6215;SDS011;3141;49.234;9.326;2022-10-16T04:09:42;0.50;;;0.50;;
6215;SDS011;3141;49.234;9.326;2022-10-16T04:10:24;0.50;;;0.50;;
6215;SDS011;3141;49.234;9.326;2022-10-16T04:11:07;0.50;;;0.50;;
6215;SDS011;3141;49.234;9.326;2022-10-16T04:11:49;1.03;;;0.63;;
6215;SDS011;3141;49.234;9.326;2022-10-16T04:12:31;0.40;;;0.40;;
6215;SDS011;3141;49.234;9.326;2022-10-16T04:13:14;0.50;;;0.50;;
6215;SDS011;3141;49.234;9.326;2022-10-16T04:13:56;1.97;;;1.20;;
6215;SDS011;3141;49.234;9.326;2022-10-16T04:14:39;1.30;;;1.20;;
6215;SDS011;3141;49.234;9.326;2022-10-16T04:15:21;2.13;;;1.10;;
6215;SDS011;3141;49.234;9.326;2022-10-16T04:16:05;0.85;;;0.85;;
6215;SDS011;3141;49.234;9.326;2022-10-16T04:16:47;2.03;;;0.77;;
6215;SDS011;3141;49.234;9.326;2022-10-16T04:17:29;0.80;;;0.80;;
6215;SDS011;3141;49.234;9.326;2022-10-16T04:18:12;1.03;;;1.03;;
6215;SDS011;3141;49.234;9.326;2022-10-16T04:18:54;0.50;;;0.50;;
6215;SDS011;3141;49.234;9.326;2022-10-16T04:19:36;0.60;;;0.60;;
6215;SDS011;3141;49.234;9.326;2022-10-16T04:20:19;1.33;;;0.60;;
6215;SDS011;3141;49.234;9.326;2022-10-16T04:21:02;0.73;;;0.70;;
6215;SDS011;3141;49.234;9.326;2022-10-16T04:21:46;0.70;;;0.70;;
6215;SDS011;3141;49.234;9.326;2022-10-16T04:22:28;0.50;;;0.50;;
6215;SDS011;3141;49.234;9.326;2022-10-16T04:23:11;0.33;;;0.33;;
6215;SDS011;3141;49.234;9.326;2022-10-16T04:23:53;0.40;;;0.40;;
6215;SDS011;3141;49.234;9.326;2022-10-16T04:24:36;4.13;;;0.80;;
6215;SDS011;3141;49.234;9.326;2022-10-16T04:25:18;0.70;;;0.70;;
6215;SDS011;3141;49.234;9.326;2022-10-16T04:26:00;0.33;;;0.33;;
6215;SDS011;3141;49.234;9.326;2022-10-16T04:26:42;0.30;;;0.30;;
6215;SDS011;3141;49.234;9.326;2022-10-16T04:27:25;0.40;;;0.40;;
6215;SDS011;3141;49.234;9.326;2022-10-16T04:28:07;0.63;;;0.57;;
6215;SDS011;3141;49.234;9.326;2022-10-16T04:28:49;0.37;;;0.37;;
6215;SDS011;3141;49.234;9.326;2022-10-16T04:29:32;0.93;;;0.67;;
6215;SDS011;3141;49.234;9.326;2022-10-16T04:30:14;0.97;;;0.93;;
6215;SDS011;3141;49.234;9.326;2022-10-16T04:30:56;0.70;;;0.60;;
6215;SDS011;3141;49.234;9.326;2022-10-16T04:31:39;0.40;;;0.40;;
6215;SDS011;3141;49.234;9.326;2022-10-16T04:32:21;0.47;;;0.47;;
6215;SDS011;3141;49.234;9.326;2022-10-16T04:33:04;0.47;;;0.47;;
6215;SDS011;3141;49.234;9.326;2022-10-16T04:33:46;1.23;;;0.50;;
6215;SDS011;3141;49.234;9.326;2022-10-16T04:34:29;0.47;;;0.47;;
6215;SDS011;3141;49.234;9.326;2022-10-16T04:35:11;0.47;;;0.47;;
6215;SDS011;3141;49.234;9.326;2022-10-16T04:35:57;0.33;;;0.33;;
6215;SDS011;3141;49.234;9.326;2022-10-16T04:36:43;0.85;;;0.43;;
6215;SDS011;3141;49.234;9.326;2022-10-16T04:37:26;0.40;;;0.40;;
6215;SDS011;3141;49.234;9.326;2022-10-16T04:38:09;0.50;;;0.50;;
6215;SDS011;3141;49.234;9.326;2022-10-16T04:38:51;0.53;;;0.53;;
6215;SDS011;3141;49.234;9.326;2022-10-16T04:39:33;0.57;;;0.57;;
6215;SDS011;3141;49.234;9.326;2022-10-16T04:40:16;2.30;;;0.43;;
6215;SDS011;3141;49.234;9.326;2022-10-16T04:40:58;0.50;;;0.50;;
6215;SDS011;3141;49.234;9.326;2022-10-16T04:41:41;0.30;;;0.30;;
6215;SDS011;3141;49.234;9.326;2022-10-16T04:42:24;0.40;;;0.40;;
6215;SDS011;3141;49.234;9.326;2022-10-16T04:43:06;0.30;;;0.30;;
6215;SDS011;3141;49.234;9.326;2022-10-16T04:43:49;0.83;;;0.83;;
6215;SDS011;3141;49.234;9.326;2022-10-16T04:44:31;0.50;;;0.50;;
6215;SDS011;3141;49.234;9.326;2022-10-16T04:45:14;0.97;;;0.50;;
6215;SDS011;3141;49.234;9.326;2022-10-16T04:45:56;8.67;;;0.60;;
6215;SDS011;3141;49.234;9.326;2022-10-16T04:46:38;0.40;;;0.40;;
6215;SDS011;3141;49.234;9.326;2022-10-16T04:47:21;0.50;;;0.50;;